Time;durP1;ratioP1;P1;durP2;ratioP2;P2;SDS_P1;SDS_P2;PMS_P1;PMS_P2;Temp;Humidity;BMP_temperature;BMP_pressure;BME280_temperature;BME280_humidity;BME280_pressure;Samples;Min_cycle;Max_cycle;Signal;HPM_P1;HPM_P2
2023/08/09 00:00:13;;;;;;;1.30;1.20;;;14.60;95.20;;;;;;2054091;28;20249;-83
2023/08/09 00:01:14;;;;;;;1.63;1.33;;;14.50;95.20;;;;;;2046707;28;20188;-83
2023/08/09 00:02:15;;;;;;;1.83;1.30;;;14.50;95.20;;;;;;2045023;28;20208;-83
2023/08/09 00:03:16;;;;;;;3.13;1.57;;;14.40;94.90;;;;;;2047684;28;20198;-82
2023/08/09 00:04:16;;;;;;;2.77;1.53;;;14.40;94.70;;;;;;2045273;28;20666;-84
2023/08/09 00:05:17;;;;;;;1.40;1.27;;;14.40;95.10;;;;;;2045512;28;20184;-83
2023/08/09 00:06:18;;;;;;;3.10;1.60;;;14.40;95.10;;;;;;2039077;29;20207;-84
2023/08/09 00:07:18;;;;;;;1.63;1.37;;;14.50;94.00;;;;;;2051862;28;20656;-83
2023/08/09 00:08:19;;;;;;;2.13;1.20;;;14.60;93.80;;;;;;2053395;28;20253;-83
2023/08/09 00:09:21;;;;;;;1.47;1.10;;;14.50;93.80;;;;;;2047756;28;20226;-82
2023/08/09 00:10:21;;;;;;;1.20;1.10;;;14.50;93.90;;;;;;2049773;28;20228;-84
2023/08/09 00:11:22;;;;;;;2.30;1.17;;;14.50;93.80;;;;;;2041664;29;20224;-84
2023/08/09 00:12:23;;;;;;;1.67;1.30;;;14.60;93.50;;;;;;2047314;28;20751;-83
2023/08/09 00:13:24;;;;;;;1.77;1.20;;;14.60;93.70;;;;;;2049409;28;20228;-84
2023/08/09 00:14:25;;;;;;;2.65;1.48;;;14.60;93.80;;;;;;2053188;28;20237;-84
2023/08/09 00:15:26;;;;;;;1.53;1.43;;;14.60;93.90;;;;;;2052630;28;20735;-82
2023/08/09 00:16:26;;;;;;;2.03;1.33;;;14.60;93.70;;;;;;2045738;28;20641;-83
2023/08/09 00:17:28;;;;;;;1.98;1.30;;;14.50;93.60;;;;;;2057100;28;20856;-84
2023/08/09 00:18:29;;;;;;;1.73;1.10;;;14.60;93.90;;;;;;2065451;28;20289;-83
2023/08/09 00:19:30;;;;;;;1.30;1.00;;;14.60;93.70;;;;;;2064941;28;20238;-84
2023/08/09 00:20:32;;;;;;;1.30;1.20;;;14.70;93.40;;;;;;2056619;28;20298;-82
2023/08/09 00:21:33;;;;;;;2.00;1.20;;;14.50;93.80;;;;;;2039720;28;20235;-83
2023/08/09 00:22:34;;;;;;;2.93;1.23;;;14.50;94.20;;;;;;2056270;28;20237;-83
2023/08/09 00:23:36;;;;;;;1.50;1.27;;;14.50;94.30;;;;;;2056850;28;21085;-82
2023/08/09 00:24:37;;;;;;;2.85;1.35;;;14.50;93.50;;;;;;2041439;28;20228;-84
2023/08/09 00:25:38;;;;;;;1.77;1.13;;;14.50;93.80;;;;;;2049256;28;20227;-82
2023/08/09 00:26:39;;;;;;;1.30;1.20;;;14.50;94.10;;;;;;2049642;28;20458;-83
2023/08/09 00:27:40;;;;;;;1.10;1.00;;;14.50;94.20;;;;;;2040813;29;20236;-84
2023/08/09 00:28:41;;;;;;;1.77;0.90;;;14.50;93.70;;;;;;2040316;28;20235;-83
2023/08/09 00:29:42;;;;;;;1.20;1.10;;;14.60;93.40;;;;;;2049239;28;20668;-83
2023/08/09 00:30:43;;;;;;;2.50;1.10;;;14.70;93.40;;;;;;2049037;28;20465;-82
2023/08/09 00:31:44;;;;;;;2.93;1.20;;;14.90;93.00;;;;;;2054868;28;20925;-83
2023/08/09 00:32:45;;;;;;;2.00;1.30;;;15.00;92.80;;;;;;2058993;28;20520;-83
2023/08/09 00:33:46;;;;;;;1.87;1.00;;;15.00;92.80;;;;;;2065566;28;20281;-82
2023/08/09 00:34:47;;;;;;;1.23;1.00;;;15.10;92.70;;;;;;2068986;28;20503;-82
2023/08/09 00:35:48;;;;;;;1.63;1.20;;;15.20;92.70;;;;;;2051928;28;20279;-83
2023/08/09 00:36:48;;;;;;;1.43;1.00;;;15.20;92.30;;;;;;2058794;28;20488;-83
2023/08/09 00:37:49;;;;;;;2.40;0.97;;;15.20;92.30;;;;;;2065367;28;20229;-82
2023/08/09 00:38:50;;;;;;;3.60;1.40;;;15.10;92.30;;;;;;2049938;28;20230;-83
2023/08/09 00:39:51;;;;;;;1.53;1.30;;;15.20;92.30;;;;;;2053678;28;20809;-83
2023/08/09 00:40:51;;;;;;;1.43;1.03;;;15.10;92.30;;;;;;2045830;28;20238;-83
2023/08/09 00:41:53;;;;;;;1.63;1.13;;;15.20;91.90;;;;;;2049541;28;20418;-83
2023/08/09 00:42:53;;;;;;;1.67;1.20;;;15.30;91.80;;;;;;2037985;29;20240;-84
2023/08/09 00:43:54;;;;;;;2.03;1.20;;;15.40;91.40;;;;;;2048850;28;21089;-82
2023/08/09 00:44:55;;;;;;;1.30;1.00;;;15.50;91.20;;;;;;2056983;28;20290;-83
2023/08/09 00:45:55;;;;;;;1.73;1.30;;;15.50;90.90;;;;;;2053286;28;20772;-83
2023/08/09 00:46:56;;;;;;;2.10;1.50;;;15.50;90.40;;;;;;2041858;28;20238;-83
2023/08/09 00:47:58;;;;;;;2.63;1.20;;;15.60;90.30;;;;;;2039866;29;20239;-84
2023/08/09 00:48:59;;;;;;;2.33;1.30;;;15.60;90.30;;;;;;2037620;29;20271;-83
2023/08/09 00:50:01;;;;;;;2.60;1.10;;;15.60;90.30;;;;;;2047440;29;20532;-83
2023/08/09 00:51:02;;;;;;;1.60;1.10;;;15.60;90.10;;;;;;2038025;28;20579;-83
2023/08/09 00:52:04;;;;;;;3.13;1.20;;;15.50;90.00;;;;;;2042011;28;20711;-84
2023/08/09 00:53:05;;;;;;;1.80;1.30;;;15.60;90.20;;;;;;2041302;28;20291;-83
2023/08/09 00:54:05;;;;;;;1.90;1.30;;;15.50;90.20;;;;;;2050348;28;20430;-82
2023/08/09 00:55:07;;;;;;;3.83;1.13;;;15.40;90.50;;;;;;2056702;28;20198;-82
2023/08/09 00:56:08;;;;;;;4.97;1.10;;;15.40;90.60;;;;;;2056981;28;20191;-83
2023/08/09 00:57:09;;;;;;;1.90;1.30;;;15.40;90.50;;;;;;2049637;28;20484;-84
2023/08/09 00:58:10;;;;;;;1.10;1.00;;;15.50;90.40;;;;;;2055682;28;20245;-84
2023/08/09 00:59:10;;;;;;;2.93;1.10;;;15.50;90.50;;;;;;2050459;28;20434;-83
2023/08/09 01:00:12;;;;;;;1.30;1.17;;;15.60;90.40;;;;;;2049459;28;20657;-83
2023/08/09 01:01:12;;;;;;;2.00;1.23;;;15.50;90.60;;;;;;2048825;28;20203;-83
2023/08/09 01:02:13;;;;;;;1.07;0.90;;;15.50;90.30;;;;;;2041770;29;20905;-84
2023/08/09 01:03:14;;;;;;;1.10;1.00;;;15.50;90.00;;;;;;2048684;28;20195;-83
2023/08/09 01:04:16;;;;;;;2.00;1.40;;;15.50;90.00;;;;;;2056452;28;20218;-84
2023/08/09 01:05:17;;;;;;;1.37;1.03;;;15.40;91.00;;;;;;2054619;28;20224;-83
2023/08/09 01:07:20;;;;;;;1.67;1.03;;;15.40;90.50;;;;;;2062722;28;20427;-83
2023/08/09 01:08:42;;;;;;;1.98;1.30;;;15.30;91.10;;;;;;2039257;29;20243;-83
2023/08/09 01:09:54;;;;;;;2.83;1.10;;;15.30;90.80;;;;;;2055972;28;20242;-83
2023/08/09 01:11:10;;;;;;;2.22;1.30;;;15.40;90.50;;;;;;2050612;28;20727;-83
2023/08/09 01:12:17;;;;;;;1.30;1.07;;;15.50;90.20;;;;;;2046175;28;20669;-83
2023/08/09 01:13:19;;;;;;;3.20;1.13;;;15.40;90.40;;;;;;2049426;28;20442;-82
2023/08/09 01:14:25;;;;;;;1.25;1.13;;;15.50;90.20;;;;;;2047469;29;20470;-83
2023/08/09 01:15:26;;;;;;;1.93;1.10;;;15.50;90.20;;;;;;2057069;28;20240;-83
2023/08/09 01:16:27;;;;;;;1.47;1.17;;;15.50;90.00;;;;;;2062214;28;20472;-83
2023/08/09 01:17:31;;;;;;;1.37;1.23;;;15.60;90.00;;;;;;2049810;28;20250;-84
2023/08/09 01:18:33;;;;;;;1.67;1.10;;;15.60;90.40;;;;;;2047646;28;20474;-84
2023/08/09 01:19:37;;;;;;;4.43;1.17;;;15.60;88.30;;;;;;2046400;28;20568;-84
2023/08/09 01:20:40;;;;;;;1.77;0.93;;;15.60;88.10;;;;;;2049271;28;20481;-83
2023/08/09 01:21:43;;;;;;;2.63;1.13;;;15.60;88.00;;;;;;2052995;28;20501;-84
2023/08/09 01:22:51;;;;;;;1.63;1.20;;;15.60;88.00;;;;;;2055009;28;20609;-83
2023/08/09 01:23:52;;;;;;;2.67;1.40;;;15.60;88.70;;;;;;2046441;28;20588;-83
2023/08/09 01:24:53;;;;;;;2.90;1.30;;;15.80;87.80;;;;;;2049024;28;20474;-83
2023/08/09 01:25:53;;;;;;;1.60;1.20;;;15.70;85.80;;;;;;2048239;28;20293;-83
2023/08/09 01:26:55;;;;;;;1.30;1.20;;;15.60;88.50;;;;;;2063965;28;20317;-83
2023/08/09 01:27:58;;;;;;;1.80;1.43;;;15.50;89.70;;;;;;2054389;28;20317;-82
2023/08/09 01:28:59;;;;;;;1.33;1.10;;;15.60;89.10;;;;;;2054972;28;20556;-83
2023/08/09 01:30:00;;;;;;;1.40;1.00;;;15.60;88.50;;;;;;2050302;28;21007;-82
2023/08/09 01:31:01;;;;;;;1.70;1.30;;;15.70;88.10;;;;;;2048203;28;20220;-83
2023/08/09 01:32:02;;;;;;;2.10;1.13;;;15.70;87.30;;;;;;2049033;28;20453;-83
2023/08/09 01:33:03;;;;;;;1.33;1.23;;;15.70;87.20;;;;;;2046760;28;20474;-82
2023/08/09 01:34:04;;;;;;;1.20;1.00;;;15.70;87.50;;;;;;2045028;28;21295;-83
2023/08/09 01:35:06;;;;;;;3.07;1.33;;;15.80;86.50;;;;;;2048794;28;20441;-83
2023/08/09 01:36:19;;;;;;;1.10;1.00;;;15.90;86.00;;;;;;2044800;28;20232;-82
2023/08/09 01:37:47;;;;;;;2.50;1.43;;;15.90;88.10;;;;;;2042633;29;20437;-83
2023/08/09 01:38:57;;;;;;;1.70;1.30;;;15.80;89.80;;;;;;2052243;28;20536;-82
2023/08/09 01:40:00;;;;;;;1.30;1.20;;;15.70;89.90;;;;;;2055586;28;21184;-84
2023/08/09 01:41:04;;;;;;;1.50;1.20;;;15.70;89.10;;;;;;2048295;28;20469;-82
2023/08/09 01:42:06;;;;;;;1.20;1.03;;;15.70;88.50;;;;;;2041564;28;21078;-82
2023/08/09 01:43:08;;;;;;;2.23;1.20;;;15.80;87.70;;;;;;2047096;28;20423;-83
2023/08/09 01:44:11;;;;;;;1.40;1.17;;;15.90;86.90;;;;;;2041060;28;20804;-83
2023/08/09 01:45:13;;;;;;;2.33;1.53;;;16.00;86.50;;;;;;2041020;28;20486;-84
2023/08/09 01:46:14;;;;;;;0.90;0.90;;;15.70;90.00;;;;;;2046343;28;20523;-84
2023/08/09 01:47:15;;;;;;;2.65;1.27;;;15.90;88.20;;;;;;2056795;28;20417;-83
2023/08/09 01:48:16;;;;;;;2.17;1.20;;;15.80;88.30;;;;;;2058843;28;20175;-84
2023/08/09 01:49:21;;;;;;;1.43;1.13;;;15.70;87.80;;;;;;2055010;28;20461;-84
2023/08/09 01:50:26;;;;;;;1.97;1.10;;;15.80;87.20;;;;;;2049095;28;20247;-84
2023/08/09 01:51:27;;;;;;;2.43;1.07;;;15.90;87.00;;;;;;2039212;28;20471;-83
2023/08/09 01:52:28;;;;;;;1.53;1.20;;;15.70;86.50;;;;;;2049379;28;20477;-83
2023/08/09 01:53:29;;;;;;;1.40;1.13;;;15.60;87.50;;;;;;2057231;28;20305;-84
2023/08/09 01:54:30;;;;;;;1.80;1.20;;;15.50;88.50;;;;;;2056553;28;20484;-84
2023/08/09 01:55:31;;;;;;;3.00;1.30;;;15.40;89.10;;;;;;2047465;28;20526;-83
2023/08/09 01:56:33;;;;;;;1.90;1.30;;;15.30;89.60;;;;;;2049306;28;20227;-83
2023/08/09 01:57:34;;;;;;;1.97;1.30;;;15.40;88.00;;;;;;2053303;28;20470;-82
2023/08/09 01:58:34;;;;;;;1.53;1.23;;;15.40;88.00;;;;;;2049305;28;20480;-82
2023/08/09 01:59:35;;;;;;;2.97;1.27;;;15.30;88.10;;;;;;2045886;28;20748;-83
2023/08/09 02:00:36;;;;;;;1.87;1.30;;;15.30;87.80;;;;;;2053131;28;20223;-83
2023/08/09 02:01:37;;;;;;;1.50;1.20;;;15.30;88.50;;;;;;2052976;28;20254;-83
2023/08/09 02:02:37;;;;;;;1.57;1.10;;;15.30;88.10;;;;;;2048218;28;20235;-83
2023/08/09 02:03:38;;;;;;;1.33;1.20;;;15.30;88.60;;;;;;2065668;28;20237;-83
2023/08/09 02:04:39;;;;;;;1.40;1.10;;;15.40;88.50;;;;;;2065639;28;20226;-83
2023/08/09 02:05:40;;;;;;;2.13;1.20;;;15.40;87.30;;;;;;2044305;29;20236;-83
2023/08/09 02:06:40;;;;;;;2.83;1.30;;;15.50;87.20;;;;;;2060131;28;20229;-82
2023/08/09 02:07:41;;;;;;;2.17;1.20;;;15.50;87.20;;;;;;2056632;28;20465;-83
2023/08/09 02:08:43;;;;;;;1.87;1.10;;;15.50;87.20;;;;;;2039522;29;20251;-83
2023/08/09 02:09:44;;;;;;;1.17;1.07;;;15.50;87.60;;;;;;2047329;28;20480;-83
2023/08/09 02:10:44;;;;;;;3.37;1.67;;;15.60;87.10;;;;;;2049206;28;20564;-84
2023/08/09 02:11:45;;;;;;;1.73;1.00;;;15.50;87.20;;;;;;2049009;28;20263;-84
2023/08/09 02:12:48;;;;;;;1.33;0.90;;;15.60;86.80;;;;;;2046326;28;20633;-83
2023/08/09 02:13:49;;;;;;;4.10;1.20;;;15.50;87.30;;;;;;2049795;28;20227;-84
2023/08/09 02:14:50;;;;;;;2.97;1.30;;;15.50;87.00;;;;;;2058618;28;20481;-84
2023/08/09 02:15:51;;;;;;;1.10;1.00;;;15.60;87.50;;;;;;2048299;28;20231;-83
2023/08/09 02:16:52;;;;;;;1.27;1.17;;;15.50;86.70;;;;;;2040986;29;20503;-82
2023/08/09 02:17:53;;;;;;;2.63;1.10;;;15.50;86.80;;;;;;2048818;28;20231;-84
2023/08/09 02:18:54;;;;;;;1.40;1.10;;;15.50;86.40;;;;;;2053378;28;20528;-84
2023/08/09 02:19:55;;;;;;;2.20;1.10;;;15.50;87.30;;;;;;2044482;28;20243;-84
2023/08/09 02:20:55;;;;;;;1.33;1.23;;;15.50;85.80;;;;;;2039836;29;20578;-84
2023/08/09 02:21:56;;;;;;;1.50;1.20;;;15.50;86.60;;;;;;2047108;29;20251;-84
2023/08/09 02:22:58;;;;;;;1.50;1.10;;;15.50;87.00;;;;;;2058875;28;20230;-84
2023/08/09 02:23:58;;;;;;;2.00;1.20;;;15.40;88.70;;;;;;2057485;28;20231;-84
2023/08/09 02:24:59;;;;;;;1.87;1.20;;;15.40;86.70;;;;;;2057801;28;20476;-83
2023/08/09 02:26:00;;;;;;;1.37;1.10;;;15.40;86.80;;;;;;2057418;28;20254;-83
2023/08/09 02:27:01;;;;;;;1.27;1.00;;;15.50;86.90;;;;;;2055222;28;20222;-83
2023/08/09 02:28:01;;;;;;;1.70;1.20;;;15.60;87.30;;;;;;2053239;28;20218;-83
2023/08/09 02:29:02;;;;;;;1.97;1.23;;;15.50;86.70;;;;;;2050660;28;20215;-82
2023/08/09 02:30:04;;;;;;;1.73;1.03;;;15.50;86.70;;;;;;2057902;28;20183;-82
2023/08/09 02:31:04;;;;;;;1.90;1.40;;;15.50;87.10;;;;;;2057571;28;20211;-82
2023/08/09 02:32:06;;;;;;;3.07;1.07;;;15.50;87.40;;;;;;2052481;28;20473;-81
2023/08/09 02:33:07;;;;;;;1.70;1.10;;;15.50;87.60;;;;;;2058813;28;20195;-83
2023/08/09 02:34:07;;;;;;;1.43;1.17;;;15.50;88.00;;;;;;2060112;28;20460;-83
2023/08/09 02:35:10;;;;;;;2.33;1.10;;;15.40;86.50;;;;;;2049912;28;20243;-82
2023/08/09 02:36:11;;;;;;;2.50;1.30;;;15.60;87.20;;;;;;2051149;28;20184;-82
2023/08/09 02:37:12;;;;;;;1.80;1.00;;;15.50;87.00;;;;;;2048919;28;20458;-83
2023/08/09 02:38:13;;;;;;;2.30;1.20;;;15.50;86.70;;;;;;2043140;29;20434;-83
2023/08/09 02:39:13;;;;;;;3.37;1.20;;;15.40;88.10;;;;;;2047690;28;20620;-84
2023/08/09 02:40:14;;;;;;;1.67;1.20;;;15.50;87.00;;;;;;2047088;28;20211;-83
2023/08/09 02:41:15;;;;;;;1.20;1.10;;;15.50;87.30;;;;;;2058951;28;20199;-84
2023/08/09 02:42:16;;;;;;;4.10;1.10;;;15.50;86.00;;;;;;2062800;28;20233;-84
2023/08/09 02:43:18;;;;;;;3.07;1.30;;;15.60;86.20;;;;;;2054272;28;20641;-84
2023/08/09 02:44:19;;;;;;;1.20;1.10;;;15.60;86.00;;;;;;2047877;28;20481;-83
2023/08/09 02:45:19;;;;;;;1.23;1.00;;;15.50;85.90;;;;;;2054263;28;20428;-83
2023/08/09 02:46:20;;;;;;;2.23;1.07;;;15.50;86.00;;;;;;2054294;28;20248;-82
2023/08/09 02:47:21;;;;;;;1.60;1.20;;;15.50;86.40;;;;;;2053702;28;20263;-83
2023/08/09 02:48:22;;;;;;;2.50;1.37;;;15.60;85.90;;;;;;2050478;28;20789;-83
2023/08/09 02:49:23;;;;;;;1.10;1.00;;;15.60;86.80;;;;;;2046790;28;20228;-84
2023/08/09 02:50:24;;;;;;;1.63;1.10;;;15.60;85.10;;;;;;2051630;28;20465;-83
2023/08/09 02:51:24;;;;;;;1.40;1.30;;;15.50;85.90;;;;;;2050490;28;20235;-83
2023/08/09 02:52:25;;;;;;;3.60;1.00;;;15.50;86.20;;;;;;2038598;29;20314;-83
2023/08/09 02:53:33;;;;;;;1.57;1.10;;;15.60;86.30;;;;;;2046134;29;20284;-83
2023/08/09 02:54:33;;;;;;;1.63;1.53;;;15.60;86.70;;;;;;2055912;28;20242;-84
2023/08/09 02:55:34;;;;;;;1.17;1.07;;;15.60;86.00;;;;;;2057935;28;20468;-84
2023/08/09 02:56:35;;;;;;;1.10;1.00;;;15.60;86.40;;;;;;2050070;28;20231;-84
2023/08/09 02:57:36;;;;;;;2.00;1.20;;;15.60;85.80;;;;;;2048900;28;21125;-83
2023/08/09 02:58:37;;;;;;;2.37;1.10;;;15.60;85.70;;;;;;2049711;28;20247;-84
2023/08/09 02:59:38;;;;;;;1.47;1.20;;;15.60;85.70;;;;;;2042123;29;20642;-84
2023/08/09 03:00:38;;;;;;;3.17;1.43;;;15.60;86.20;;;;;;2056110;28;20254;-84
2023/08/09 03:01:39;;;;;;;1.63;1.20;;;15.60;86.30;;;;;;2063948;28;20316;-83
2023/08/09 03:02:40;;;;;;;1.40;1.00;;;15.60;86.40;;;;;;2046982;28;20235;-84
2023/08/09 03:03:41;;;;;;;1.17;0.93;;;15.70;86.10;;;;;;2046164;28;20468;-83
2023/08/09 03:04:42;;;;;;;2.00;1.00;;;15.70;85.10;;;;;;2047997;29;20235;-84
2023/08/09 03:05:42;;;;;;;2.07;1.20;;;15.80;84.20;;;;;;2049576;28;20231;-83
2023/08/09 03:06:43;;;;;;;1.73;1.03;;;15.70;83.80;;;;;;2050835;28;20501;-83
2023/08/09 03:07:44;;;;;;;1.87;1.37;;;15.60;84.70;;;;;;2050940;28;20234;-83
2023/08/09 03:08:45;;;;;;;2.73;1.50;;;15.60;85.30;;;;;;2061101;28;20234;-83
2023/08/09 03:09:46;;;;;;;1.47;1.00;;;15.60;85.60;;;;;;2056255;28;20236;-84
2023/08/09 03:10:47;;;;;;;1.87;1.10;;;15.50;86.10;;;;;;2047850;28;20474;-84
2023/08/09 03:11:47;;;;;;;3.13;1.30;;;15.50;86.60;;;;;;2057961;28;20512;-85
2023/08/09 03:12:48;;;;;;;3.17;1.40;;;15.50;87.80;;;;;;2057844;28;20259;-85
2023/08/09 03:13:50;;;;;;;1.63;1.20;;;15.50;86.60;;;;;;2041015;29;20746;-83
2023/08/09 03:14:50;;;;;;;2.30;1.30;;;15.60;86.20;;;;;;2042541;28;20308;-83
2023/08/09 03:15:51;;;;;;;1.13;0.93;;;15.60;85.60;;;;;;2041998;29;20479;-82
2023/08/09 03:16:52;;;;;;;4.63;1.00;;;15.70;84.50;;;;;;2057748;28;20238;-82
2023/08/09 03:17:52;;;;;;;1.80;1.07;;;15.80;83.90;;;;;;2057585;28;20250;-83
2023/08/09 03:18:53;;;;;;;1.73;1.07;;;15.70;83.20;;;;;;2041498;29;20230;-82
2023/08/09 03:19:54;;;;;;;1.50;1.10;;;15.70;84.20;;;;;;2041646;29;20228;-83
2023/08/09 03:20:54;;;;;;;1.00;0.97;;;15.70;84.10;;;;;;2045617;28;20275;-82
2023/08/09 03:21:55;;;;;;;2.27;1.10;;;15.70;84.10;;;;;;2057613;28;20234;-82
2023/08/09 03:22:59;;;;;;;2.40;1.27;;;15.70;83.50;;;;;;2054174;28;20223;-82
2023/08/09 03:24:01;;;;;;;3.30;1.00;;;15.80;83.30;;;;;;2055580;28;20309;-83
2023/08/09 03:25:01;;;;;;;1.53;1.00;;;15.70;83.80;;;;;;2049158;28;20833;-82
2023/08/09 03:26:03;;;;;;;1.20;1.10;;;15.70;84.10;;;;;;2045425;28;20458;-83
2023/08/09 03:27:04;;;;;;;1.10;1.00;;;15.70;84.10;;;;;;2050018;28;20225;-82
2023/08/09 03:28:05;;;;;;;1.47;1.30;;;15.60;84.40;;;;;;2049258;28;20457;-83
2023/08/09 03:29:06;;;;;;;1.20;1.00;;;15.80;84.50;;;;;;2065470;28;20569;-83
2023/08/09 03:30:08;;;;;;;1.40;1.27;;;15.70;84.60;;;;;;2065524;28;20189;-83
2023/08/09 03:31:09;;;;;;;2.00;1.10;;;15.60;85.60;;;;;;2057749;28;20183;-84
2023/08/09 03:32:10;;;;;;;1.13;1.03;;;15.60;84.80;;;;;;2057867;28;20949;-83
2023/08/09 03:33:11;;;;;;;1.30;1.00;;;15.50;85.50;;;;;;2055206;28;20191;-83
2023/08/09 03:34:12;;;;;;;2.30;1.07;;;15.70;85.00;;;;;;2055359;28;20636;-83
2023/08/09 03:35:12;;;;;;;1.30;1.07;;;15.60;85.40;;;;;;2050130;28;20477;-83
2023/08/09 03:36:13;;;;;;;1.53;0.90;;;15.50;85.60;;;;;;2049672;28;20709;-83
2023/08/09 03:37:14;;;;;;;1.33;1.07;;;15.40;86.10;;;;;;2057548;28;20186;-83
2023/08/09 03:38:15;;;;;;;4.80;1.20;;;15.50;85.70;;;;;;2050164;28;20203;-82
2023/08/09 03:39:16;;;;;;;1.97;1.17;;;15.60;86.00;;;;;;2049945;28;20835;-82
2023/08/09 03:40:17;;;;;;;1.67;1.07;;;15.60;85.30;;;;;;2059391;28;20187;-82
2023/08/09 03:41:17;;;;;;;1.50;1.00;;;15.60;85.10;;;;;;2053906;28;20216;-82
2023/08/09 03:42:18;;;;;;;1.70;1.10;;;15.60;86.00;;;;;;2052554;28;20218;-81
2023/08/09 03:43:19;;;;;;;3.23;1.30;;;15.50;86.10;;;;;;2056407;28;20187;-82
2023/08/09 03:44:19;;;;;;;1.63;1.17;;;15.50;87.00;;;;;;2048320;28;20211;-82
2023/08/09 03:45:22;;;;;;;2.30;1.20;;;15.40;86.90;;;;;;2050031;28;20275;-83
2023/08/09 03:46:23;;;;;;;2.43;1.20;;;15.40;87.10;;;;;;2050926;28;20732;-82
2023/08/09 03:47:23;;;;;;;3.03;1.27;;;15.40;87.80;;;;;;2050059;28;20454;-83
2023/08/09 03:48:24;;;;;;;2.20;1.20;;;15.40;87.70;;;;;;2046024;28;20546;-83
2023/08/09 03:49:25;;;;;;;2.00;1.00;;;15.60;87.00;;;;;;2049045;28;20677;-83
2023/08/09 03:50:26;;;;;;;3.67;1.30;;;15.60;86.20;;;;;;2049588;28;20306;-83
2023/08/09 03:51:27;;;;;;;1.13;1.03;;;15.70;85.20;;;;;;2041892;28;20228;-84
2023/08/09 03:52:28;;;;;;;1.47;1.10;;;15.80;85.00;;;;;;2042223;28;21039;-82
2023/08/09 03:53:29;;;;;;;1.57;1.00;;;15.80;84.70;;;;;;2041850;29;20491;-84
2023/08/09 03:54:29;;;;;;;1.67;1.17;;;15.80;84.40;;;;;;2048864;28;20728;-83
2023/08/09 03:55:30;;;;;;;1.30;1.03;;;15.90;83.50;;;;;;2057356;28;20305;-83
2023/08/09 03:56:31;;;;;;;4.47;1.23;;;16.00;83.10;;;;;;2061612;28;20257;-84
2023/08/09 03:57:32;;;;;;;1.63;1.20;;;16.00;83.20;;;;;;2054072;28;20231;-83
2023/08/09 03:58:33;;;;;;;2.23;1.37;;;16.00;82.80;;;;;;2061404;28;20229;-83
2023/08/09 03:59:34;;;;;;;2.57;1.17;;;16.00;82.40;;;;;;2056381;28;20540;-83
2023/08/09 04:00:34;;;;;;;1.67;0.93;;;16.00;81.70;;;;;;2046697;28;20289;-84
2023/08/09 04:01:36;;;;;;;1.00;0.90;;;15.90;82.70;;;;;;2052997;28;20307;-83
2023/08/09 04:02:36;;;;;;;2.73;1.20;;;15.80;83.80;;;;;;2043500;28;20243;-83
2023/08/09 04:03:38;;;;;;;1.83;1.47;;;15.70;84.10;;;;;;2041776;29;20493;-83
2023/08/09 04:04:38;;;;;;;1.77;1.20;;;15.70;84.20;;;;;;2049435;28;20326;-84
2023/08/09 04:05:39;;;;;;;1.70;1.20;;;15.70;84.60;;;;;;2057484;28;20516;-84
2023/08/09 04:06:40;;;;;;;1.43;1.07;;;15.80;84.70;;;;;;2049129;28;20311;-83
2023/08/09 04:07:42;;;;;;;1.50;1.10;;;15.80;84.40;;;;;;2040971;29;20224;-82
2023/08/09 04:08:43;;;;;;;1.63;1.03;;;15.90;85.10;;;;;;2048382;28;20940;-84
2023/08/09 04:09:43;;;;;;;2.37;1.13;;;15.90;83.70;;;;;;2057369;28;20472;-84
2023/08/09 04:10:44;;;;;;;4.90;1.30;;;16.00;83.00;;;;;;2049338;28;20250;-84
2023/08/09 04:11:45;;;;;;;1.23;1.10;;;16.00;82.60;;;;;;2057442;28;20238;-84
2023/08/09 04:12:45;;;;;;;1.37;1.03;;;16.10;82.00;;;;;;2054519;28;20235;-84
2023/08/09 04:13:46;;;;;;;1.40;1.10;;;16.20;81.70;;;;;;2047992;28;20231;-81
2023/08/09 04:14:47;;;;;;;1.87;1.33;;;16.20;82.00;;;;;;2044368;29;20251;-83
2023/08/09 04:15:48;;;;;;;1.60;1.10;;;16.20;80.70;;;;;;2053435;28;20242;-83
2023/08/09 04:16:49;;;;;;;2.07;1.17;;;16.20;81.10;;;;;;2071980;28;20475;-84
2023/08/09 04:17:49;;;;;;;2.67;1.10;;;16.20;81.60;;;;;;2063092;28;20246;-84
2023/08/09 04:18:51;;;;;;;1.53;1.00;;;16.20;81.70;;;;;;2056000;28;20298;-82
2023/08/09 04:19:52;;;;;;;2.23;1.23;;;16.20;82.30;;;;;;2042617;29;20295;-84
2023/08/09 04:20:53;;;;;;;1.90;1.40;;;16.10;82.70;;;;;;2049270;28;20570;-85
2023/08/09 04:21:54;;;;;;;1.50;1.00;;;16.00;83.30;;;;;;2050588;28;20470;-83
2023/08/09 04:22:54;;;;;;;1.23;1.00;;;16.00;83.20;;;;;;2046951;28;20239;-83
2023/08/09 04:23:55;;;;;;;1.67;1.17;;;16.00;84.30;;;;;;2052017;28;20265;-83
2023/08/09 04:24:56;;;;;;;2.20;1.30;;;15.90;83.30;;;;;;2047747;29;20232;-83
2023/08/09 04:25:58;;;;;;;2.47;1.10;;;15.90;82.80;;;;;;2056562;28;20243;-83
2023/08/09 04:26:59;;;;;;;3.43;1.37;;;15.90;82.50;;;;;;2059121;28;20227;-83
2023/08/09 04:28:00;;;;;;;1.33;1.10;;;15.90;82.30;;;;;;2066182;28;20516;-83
2023/08/09 04:29:00;;;;;;;2.00;1.40;;;15.90;81.70;;;;;;2057219;28;20472;-82
2023/08/09 04:30:03;;;;;;;1.90;1.20;;;15.90;81.70;;;;;;2062135;28;20254;-83
2023/08/09 04:31:04;;;;;;;2.33;1.43;;;16.00;81.80;;;;;;2051658;28;20195;-83
2023/08/09 04:32:05;;;;;;;1.67;1.20;;;16.10;82.60;;;;;;2043143;29;20441;-83
2023/08/09 04:33:05;;;;;;;1.30;1.20;;;16.10;81.50;;;;;;2042333;28;20277;-83
2023/08/09 04:34:06;;;;;;;1.23;1.00;;;16.00;81.50;;;;;;2050190;29;20284;-84
2023/08/09 04:35:09;;;;;;;2.33;1.33;;;16.00;82.70;;;;;;2058313;28;20190;-83
2023/08/09 04:36:10;;;;;;;3.03;1.47;;;15.90;83.00;;;;;;2057417;28;20186;-83
2023/08/09 04:37:11;;;;;;;2.87;1.70;;;16.00;82.30;;;;;;2050894;28;20418;-83
2023/08/09 04:38:11;;;;;;;2.53;1.67;;;16.10;81.90;;;;;;2061420;28;20191;-84
2023/08/09 04:39:13;;;;;;;2.50;1.90;;;16.10;81.10;;;;;;2060479;28;20190;-83
2023/08/09 04:40:14;;;;;;;2.00;1.60;;;16.20;81.90;;;;;;2064087;28;20253;-82
2023/08/09 04:41:15;;;;;;;2.10;1.50;;;16.30;83.90;;;;;;2058324;28;20448;-84
2023/08/09 04:42:16;;;;;;;1.90;1.50;;;16.30;82.10;;;;;;2049608;28;20238;-84
2023/08/09 04:43:17;;;;;;;1.83;1.40;;;16.40;81.70;;;;;;2049391;28;20985;-84
2023/08/09 04:44:18;;;;;;;1.77;1.17;;;16.50;80.50;;;;;;2049096;28;20278;-84
2023/08/09 04:45:19;;;;;;;2.90;1.50;;;16.50;77.90;;;;;;2064882;28;20253;-84
2023/08/09 04:46:19;;;;;;;4.53;1.20;;;16.50;80.00;;;;;;2057674;28;20186;-83
2023/08/09 04:47:21;;;;;;;1.70;1.30;;;16.50;82.10;;;;;;2042768;28;20432;-84
2023/08/09 04:48:22;;;;;;;1.60;1.30;;;16.30;81.30;;;;;;2049984;28;20263;-84
2023/08/09 04:49:22;;;;;;;1.20;1.10;;;16.20;82.40;;;;;;2053914;28;20527;-84
2023/08/09 04:50:23;;;;;;;1.57;1.20;;;16.20;80.50;;;;;;2050246;28;20232;-84
2023/08/09 04:51:24;;;;;;;1.77;1.50;;;16.20;81.00;;;;;;2052626;28;20231;-84
2023/08/09 04:52:25;;;;;;;3.07;1.27;;;16.10;81.00;;;;;;2050795;28;20231;-82
2023/08/09 04:53:25;;;;;;;2.87;1.23;;;16.10;80.40;;;;;;2057527;28;20238;-84
2023/08/09 04:54:26;;;;;;;2.73;1.23;;;16.20;81.50;;;;;;2066142;28;20511;-84
2023/08/09 04:55:27;;;;;;;2.53;1.40;;;16.20;81.70;;;;;;2057181;28;20679;-83
2023/08/09 04:56:28;;;;;;;2.20;1.53;;;16.20;80.40;;;;;;2059633;28;20627;-83
2023/08/09 04:57:31;;;;;;;1.80;1.33;;;16.30;80.30;;;;;;2066260;28;20460;-83
2023/08/09 04:58:31;;;;;;;1.67;1.17;;;16.30;81.00;;;;;;2057781;28;20286;-83
2023/08/09 04:59:32;;;;;;;2.27;1.30;;;16.20;82.80;;;;;;2049868;28;20477;-84
2023/08/09 05:00:33;;;;;;;1.17;1.07;;;16.00;83.40;;;;;;2041412;28;20247;-83
2023/08/09 05:01:34;;;;;;;1.90;1.23;;;16.00;84.50;;;;;;2042375;29;20228;-84
2023/08/09 05:02:36;;;;;;;3.93;1.33;;;16.00;84.40;;;;;;2041020;29;20651;-84
2023/08/09 05:03:37;;;;;;;2.00;1.20;;;16.00;83.80;;;;;;2045274;28;20234;-83
2023/08/09 05:04:37;;;;;;;2.37;1.20;;;16.10;83.30;;;;;;2053634;28;20468;-83
2023/08/09 05:05:38;;;;;;;3.00;1.20;;;16.20;83.20;;;;;;2046183;28;20318;-84
2023/08/09 05:06:40;;;;;;;1.60;1.30;;;16.10;83.60;;;;;;2048895;28;20262;-83
2023/08/09 05:07:40;;;;;;;4.70;1.30;;;16.10;85.30;;;;;;2052986;28;20308;-82
2023/08/09 05:08:41;;;;;;;2.50;1.40;;;16.10;83.20;;;;;;2045548;28;20470;-84
2023/08/09 05:09:42;;;;;;;1.30;1.20;;;16.20;82.80;;;;;;2041554;28;20334;-84
2023/08/09 05:10:43;;;;;;;3.30;1.20;;;16.30;81.60;;;;;;2053187;28;20235;-84
2023/08/09 05:11:43;;;;;;;1.63;1.30;;;16.30;81.30;;;;;;2054699;28;20465;-84
2023/08/09 05:12:44;;;;;;;2.30;1.10;;;16.30;83.00;;;;;;2049332;28;20298;-85
2023/08/09 05:13:45;;;;;;;2.40;1.20;;;16.20;83.60;;;;;;2040234;29;20723;-83
2023/08/09 05:14:46;;;;;;;2.00;1.67;;;16.30;83.30;;;;;;2047281;28;20237;-83
2023/08/09 05:15:46;;;;;;;1.17;0.90;;;16.20;82.00;;;;;;2047782;28;20219;-82
2023/08/09 05:16:47;;;;;;;1.37;1.20;;;16.20;82.70;;;;;;2045123;29;20236;-83
2023/08/09 05:17:47;;;;;;;1.90;1.40;;;16.20;82.60;;;;;;2053101;28;20239;-83
2023/08/09 05:18:48;;;;;;;1.33;1.00;;;16.30;82.70;;;;;;2052827;28;20231;-83
2023/08/09 05:19:49;;;;;;;1.83;1.20;;;16.30;81.70;;;;;;2043897;29;20318;-83
2023/08/09 05:20:50;;;;;;;3.03;1.37;;;16.40;82.20;;;;;;2042470;29;20319;-83